Nearby METAR (Airport) Reports

 

KPRN - Greenville, Alabama, USA
Distance from station: WNW 17mi, 28km
Updated: Sat, 16-Dec-2017 3:56am CST
Clear
Clear
 Wind from calm
Wind: Calm
Temperature: 30°F , -1°C
Dew Point: 25°F , -4°C
Humidity: 80%
Barometer: 30.24 inHg , 1024 hPa
Clouds: Clear
Visibility: 10 miles , 16 km
2017/12/16 09:56 KPRN 160956Z AUTO 00000KT 10SM CLR M01/M04 A3024 RMK AO2 SLP244 T10061039 $
KTOI - Troy, Alabama, USA
Distance from station: ENE 21mi, 34km
Updated: Sat, 16-Dec-2017 3:53am CST
Clear
Clear
 Wind from calm
Wind: Calm
Temperature: 28°F , -2°C
Dew Point: 27°F , -3°C
Humidity: 93%
Barometer: 30.26 inHg , 1024.7 hPa
Clouds: Clear
Visibility: 10 miles , 16 km
2017/12/16 09:53 KTOI 160953Z AUTO 00000KT 10SM CLR M02/M03 A3026 RMK AO2 SLP249 T10171028
K79J - Andalusia/Opp Ar, Alabama, USA
Distance from station: S 29mi, 47km
Updated: Sat, 16-Dec-2017 3:56am CST
Clear
Clear
 Wind from NE
Wind: NE 3 mph , 6 km/h
Temperature: 36°F , 2°C
Dew Point: 27°F , -3°C
Humidity: 70%
Barometer: 30.24 inHg , 1024 hPa
Clouds: Clear
Visibility: 10 miles , 16 km
2017/12/16 09:56 K79J 160956Z AUTO 04003KT 10SM CLR 02/M03 A3024 RMK AO2 SLP241 T00171028
 
KMGM - Montgomery, Alabama, USA
Distance from station: N 39mi, 63km
Updated: Sat, 16-Dec-2017 3:53am CST
Clear
Clear
 Wind from N
Wind: N 3 mph , 6 km/h
Temperature: 27°F , -3°C
Dew Point: 23°F , -5°C
Humidity: 86%
Barometer: 30.28 inHg , 1025.4 hPa
Clouds: Clear
Visibility: 10 miles , 16 km
2017/12/16 09:53 KMGM 160953Z AUTO 35003KT 10SM CLR M03/M05 A3028 RMK AO2 SLP254 T10281050
KMXF - Maxwell Afb/Mgm, Alabama, USA
Distance from station: N 44mi, 70km
Updated: Sat, 16-Dec-2017 3:56am CST
Clear
Clear
 Wind from calm
Wind: Calm
Temperature: 28°F , -2°C
Dew Point: 28°F , -2°C
Humidity: 100%
Barometer: 30.26 inHg , 1024.7 hPa
Clouds: Clear
Visibility: 8 miles , 13 km
2017/12/16 09:56 KMXF 160956Z AUTO 00000KT 8SM CLR M02/M02 A3026 RMK AO2 SLP251 T10241025
KLOR - Lowe Ahp/Ft. Ruc, Alabama, USA
Distance from station: SE 44mi, 71km
Updated: Sat, 16-Dec-2017 3:58am CST
Overcast
Overcast
 Wind from N
Wind: N 5 mph , 7 km/h
Temperature: 34°F , 1°C
Wind Chill: 29°F , -2°C
Dew Point: 28°F , -2°C
Humidity: 81%
Barometer: 30.25 inHg , 1024.4 hPa
Clouds: Overcast
Visibility: 10 miles , 16 km
Cloud details: Mostly cloudy 20000 ft
Overcast 25000 ft
2017/12/16 09:58 KLOR 160958Z AUTO 01004KT 10SM BKN200 OVC250 01/M02 A3025 RMK AO2 SLP228 T00101016 FZRANO
 
KGZH - Evergreen, Alabama, USA
Distance from station: WSW 46mi, 75km
Updated: Sat, 16-Dec-2017 3:53am CST
Clear
Clear
 Wind from calm
Wind: Calm
Temperature: 30°F , -1°C
Dew Point: 27°F , -3°C
Humidity: 86%
Barometer: 30.26 inHg , 1024.7 hPa
Clouds: Clear
Visibility: 9 miles , 14 km
2017/12/16 09:53 KGZH 160953Z AUTO 00000KT 9SM CLR M01/M03 A3026 RMK AO2 SLP249 T10111028
K0J4 - Florala Muni, Alabama, USA
Distance from station: S 47mi, 76km
Updated: Sat, 16-Dec-2017 3:58am CST
Clear
Clear
 Wind from calm
Wind: Calm
Temperature: 34°F , 1°C
Dew Point: 28°F , -2°C
Humidity: 81%
Barometer: 30.27 inHg , 1025.1 hPa
Clouds: Clear
Visibility: 10 miles , 16 km
2017/12/16 09:58 K0J4 160958Z AUTO 00000KT 10SM CLR 01/M02 A3027 RMK AO2 SLP251 T00111017 $
KOZR - Ozark/Cairns Aaf, Alabama, USA
Distance from station: SE 49mi, 78km
Updated: Sat, 16-Dec-2017 3:56am CST
Partly cloudy
Partly cloudy
 Wind from NNE
Wind: NNE 6 mph , 9 km/h
Temperature: 34°F , 1°C
Wind Chill: 29°F , -2°C
Dew Point: 27°F , -3°C
Humidity: 75%
Barometer: 30.25 inHg , 1024.4 hPa
Clouds: Partly cloudy
Visibility: 10 miles , 16 km
Cloud details: Partly cloudy 20000 ft
2017/12/16 09:56 KOZR 160956Z AUTO 02005KT 10SM SCT200 01/M03 A3025 RMK AO2 SLP248 T00131028
 
KHEY - Ft Rucker/Hanche, Alabama, USA
Distance from station: ESE 49mi, 79km
Updated: Sat, 16-Dec-2017 3:58am CST
Overcast
Overcast
 Wind from NNE
Wind: NNE 6 mph , 9 km/h
Temperature: 36°F , 2°C
Wind Chill: 31°F , -1°C
Dew Point: 28°F , -2°C
Humidity: 75%
Barometer: 30.25 inHg , 1024.4 hPa
Clouds: Overcast
Visibility: 10 miles , 16 km
Cloud details: Mostly cloudy 21000 ft
Overcast 25000 ft
2017/12/16 09:58 KHEY 160958Z AUTO 03005KT 10SM BKN210 OVC250 02/M02 A3025 RMK AO2 SLP248 T00191023 FZRANO
KDHN - Dothan, Alabama, USA
Distance from station: ESE 61mi, 97km
Updated: Sat, 16-Dec-2017 3:53am CST
Clear
Clear
 Wind from N
Wind: N 5 mph , 7 km/h
Temperature: 36°F , 2°C
Wind Chill: 32°F , 0°C
Dew Point: 28°F , -2°C
Humidity: 75%
Barometer: 30.28 inHg , 1025.4 hPa
Clouds: Clear
Visibility: 10 miles , 16 km
2017/12/16 09:53 KDHN 160953Z AUTO 01004KT 10SM CLR 02/M02 A3028 RMK AO2 SLP256 T00171017
KCEW - Crestview, Florida, USA
Distance from station: S 66mi, 107km
Updated: Sat, 16-Dec-2017 3:53am CST
Clear
Clear
 Wind from NNE
Wind: NNE 5 mph , 7 km/h
Temperature: 37°F , 3°C
Wind Chill: 33°F , 1°C
Dew Point: 28°F , -2°C
Humidity: 70%
Barometer: 30.26 inHg , 1024.7 hPa
Clouds: Clear
Visibility: 10 miles , 16 km
2017/12/16 09:53 KCEW 160953Z AUTO 03004KT 10SM CLR 03/M02 A3026 RMK AO2 SLP248 T00331017
 
KEUF - Eufaula, Alabama, USA
Distance from station: ENE 73mi, 118km
Updated: Sat, 16-Dec-2017 3:58am CST
Clear
Clear
 Wind from calm
Wind: Calm
Temperature: 30°F , -1°C
Dew Point: 27°F , -3°C
Humidity: 86%
Barometer: 30.26 inHg , 1024.7 hPa
Clouds: Clear
Visibility: 10 miles , 16 km
2017/12/16 09:58 KEUF 160958Z AUTO 00000KT 10SM CLR M01/M03 A3026 RMK AO2 SLP246 T10061028
KJKA - Gulf Shores, Alabama, USA
Distance from station: SSW 132mi, 212km
Updated: Sat, 16-Dec-2017 4:35am CST
Overcast
Overcast
 Wind from NE
Wind: NE 5 mph , 7 km/h
Temperature: 39°F , 4°C
Wind Chill: 35°F , 2°C
Dew Point: 32°F , 0°C
Humidity: 75%
Barometer: 30.25 inHg , 1024.4 hPa
Clouds: Overcast
Visibility: 10 miles , 16 km
Cloud details: Overcast 11000 ft
2017/12/16 10:35 KJKA 161035Z AUTO 04004KT 10SM OVC110 04/00 A3025 RMK AO2 T00401001
KLSF - Ft Benning/Colum, Georgia, USA
Distance from station: SNE 89mi, 143km
Updated: Sat, 16-Dec-2017 3:56am CST
Clear
Clear
 Wind from calm
Wind: Calm
Temperature: 27°F , -3°C
Dew Point: 25°F , -4°C
Humidity: 93%
Barometer: 30.26 inHg , 1024.7 hPa
Clouds: Clear
Visibility: 10 miles , 16 km
2017/12/16 09:56 KLSF 160956Z AUTO 00000KT 10SM CLR M03/M04 A3026 RMK AO2 SLP254 T10351036
 
KMOB - Mobile/Bates, Alabama, USA
Distance from station: SW 125mi, 202km
Updated: Sat, 16-Dec-2017 3:56am CST
Overcast
Overcast
 Wind from NNE
Wind: NNE 6 mph , 9 km/h
Temperature: 39°F , 4°C
Wind Chill: 35°F , 2°C
Dew Point: 30°F , -1°C
Humidity: 70%
Barometer: 30.26 inHg , 1024.7 hPa
Clouds: Overcast
Visibility: 10 miles , 16 km
Cloud details: Overcast 11000 ft
2017/12/16 09:56 KMOB 160956Z AUTO 03005KT 10SM OVC110 04/M01 A3026 RMK AO2 SLP245 T00441011
KNMM - Meridian Nas, Mississippi, USA
Distance from station: WNW 151mi, 243km
Updated: Sat, 16-Dec-2017 3:56am CST
Clear
Clear
 Wind from calm
Wind: Calm
Temperature: 25°F , -4°C
Dew Point: 21°F , -6°C
Humidity: 86%
Barometer: 30.27 inHg , 1025.1 hPa
Clouds: Clear
Visibility: 10 miles , 16 km
2017/12/16 09:56 KNMM 160956Z AUTO 00000KT 10SM CLR M04/M06 A3027 RMK AO2 SLP264 T10391056 $
KQHY - Hurlbert (Ft Walton Bch), Florida, USA
Distance from station: S 94mi, 151km
Updated: Sat, 16-Dec-2017 3:56am CST
Mostly cloudy
Mostly cloudy
 Wind from NNE
Wind: NNE 5 mph , 7 km/h
Temperature: 41°F , 5°C
Wind Chill: 38°F , 3°C
Dew Point: 30°F , -1°C
Humidity: 66%
Barometer: 30.25 inHg , 1024.4 hPa
Clouds: Mostly cloudy
Visibility: 10 miles , 16 km
Cloud details: Mostly cloudy 12000 ft
2017/12/16 09:56 KQHY 160956Z AUTO 03004KT 10SM BKN120 05/M01 A3025 RMK AO2 SLP251 T00501008
 
KTCL - Tuscaloosa, Alabama, USA
Distance from station: NNW 129mi, 207km
Updated: Sat, 16-Dec-2017 3:53am CST
Clear
Clear
 Wind from calm
Wind: Calm
Temperature: 25°F , -4°C
Dew Point: 25°F , -4°C
Humidity: 100%
Barometer: 30.29 inHg , 1025.7 hPa
Clouds: Clear
Visibility: 8 miles , 13 km
2017/12/16 09:53 KTCL 160953Z AUTO 00000KT 8SM CLR M04/M04 A3029 RMK AO2 SLP258 T10391044
KECP - Panama City, Florida, USA
Distance from station: SSE 122mi, 196km
Updated: Sat, 16-Dec-2017 3:53am CST
Overcast
Overcast
 Wind from N
Wind: N 7 mph , 11 km/h
Temperature: 43°F , 6°C
Wind Chill: 39°F , 4°C
Dew Point: 34°F , 1°C
Humidity: 71%
Barometer: 30.23 inHg , 1023.7 hPa
Clouds: Overcast
Visibility: 10 miles , 16 km
Cloud details: Overcast 7000 ft
2017/12/16 09:53 KECP 160953Z AUTO 35006KT 10SM OVC070 06/01 A3023 RMK AO2 SLP248 T00610006
KCBM - Columbus Afb, Mississippi, USA
Distance from station: NW 175mi, 282km
Updated: Sat, 16-Dec-2017 3:56am CST
Clear
Clear
 Wind from calm
Wind: Calm
Temperature: 23°F , -5°C
Dew Point: 21°F , -6°C
Humidity: 93%
Barometer: 30.27 inHg , 1025.1 hPa
Clouds: Clear
Visibility: 10 miles , 16 km
2017/12/16 09:56 KCBM 160956Z AUTO 00000KT 10SM CLR M05/M06 A3027 RMK AO2 SLP255 T10511057 $
 
KBHM - Birmingham, Alabama, USA
Distance from station: N 132mi, 212km
Updated: Sat, 16-Dec-2017 3:53am CST
Clear
Clear
 Wind from calm
Wind: Calm
Temperature: 27°F , -3°C
Dew Point: 23°F , -5°C
Humidity: 86%
Barometer: 30.29 inHg , 1025.7 hPa
Clouds: Clear
Visibility: 8 miles , 13 km
2017/12/16 09:53 KBHM 160953Z 00000KT 8SM CLR M03/M05 A3029 RMK AO2 SLP260 T10331050
KAAF - Apalachicola, Florida, USA
Distance from station: SSE 156mi, 250km
Updated: Sat, 16-Dec-2017 3:53am CST
Overcast
Overcast
 Wind from NNE
Wind: NNE 8 mph , 13 km/h
Temperature: 46°F , 8°C
Wind Chill: 42°F , 6°C
Dew Point: 36°F , 2°C
Humidity: 66%
Barometer: 30.21 inHg , 1023 hPa
Clouds: Overcast
Visibility: 10 miles , 16 km
Cloud details: Overcast 4400 ft
2017/12/16 09:53 KAAF 160953Z AUTO 03007KT 10SM OVC044 08/02 A3021 RMK AO2 SLP231 T00830017
KATL - Atlanta, Georgia, USA
Distance from station: NE 177mi, 287km
Updated: Sat, 16-Dec-2017 3:52am CST
Partly cloudy
Partly cloudy
 Wind from NW
Wind: NW 10 mph , 17 km/h
Temperature: 28°F , -2°C
Wind Chill: 19°F , -7°C
Dew Point: 25°F , -4°C
Humidity: 86%
Barometer: 30.22 inHg , 1023.4 hPa
Clouds: Partly cloudy
Visibility: 10 miles , 16 km
Cloud details: Partly cloudy 25000 ft
2017/12/16 09:52 KATL 160952Z 31009KT 10SM SCT250 M02/M04 A3022 RMK AO2 SLP242 T10221044
 
KGPT - Gulfport, Mississippi, USA
Distance from station: SW 192mi, 309km
Updated: Sat, 16-Dec-2017 3:53am CST
Overcast
Overcast
 Wind from NE
Wind: NE 7 mph , 11 km/h
Temperature: 43°F , 6°C
Wind Chill: 39°F , 4°C
Dew Point: 34°F , 1°C
Humidity: 71%
Barometer: 30.25 inHg , 1024.4 hPa
Clouds: Overcast
Visibility: 10 miles , 16 km
Cloud details: Overcast 10000 ft
2017/12/16 09:53 KGPT 160953Z 04006KT 10SM OVC100 06/01 A3025 RMK AO2 SLP244 T00560006
KNEW - New Orleans/Lake, Louisiana, USA
Distance from station: SW 255mi, 410km
Updated: Sat, 16-Dec-2017 3:53am CST
Partly cloudy
Partly cloudy
 Wind from ENE
Wind: ENE 14 mph , 22 km/h
Temperature: 45°F , 7°C
Wind Chill: 39°F , 4°C
Dew Point: 34°F , 1°C
Humidity: 66%
Barometer: 30.26 inHg , 1024.7 hPa
Clouds: Partly cloudy
Visibility: 10 miles , 16 km
Cloud details: Partly cloudy 11000 ft
2017/12/16 09:53 KNEW 160953Z AUTO 06012KT 10SM SCT110 07/01 A3026 RMK AO2 SLP239 T00720011
KP92 - Salt Point, Louisiana, USA
Distance from station: SW 347mi, 559km
Updated: Sat, 16-Dec-2017 3:53am CST

 Wind from calm
Wind: Calm
Temperature: 43°F , 6°C
Dew Point: 37°F , 3°C
Humidity: 81%
Barometer: 30.23 inHg , 1023.7 hPa
2017/12/16 09:53 KP92 160953Z AUTO 00000KT 06/03 A3023 RMK AO1 SLP236 T00560028